Time;durP1;ratioP1;P1;durP2;ratioP2;P2;SDS_P1;SDS_P2;PMS_P1;PMS_P2;Temp;Humidity;BMP_temperature;BMP_pressure;BME280_temperature;BME280_humidity;BME280_pressure;Samples;Min_cycle;Max_cycle;Signal;HPM_P1;HPM_P2
2023/07/16 00:00:04;;;;;;;12.35;5.65;;;;;;;;;;4988621;28;20132;-58
2023/07/16 00:02:30;;;;;;;13.38;4.93;;;;;;;;;;4983789;28;20046;-58
2023/07/16 00:04:57;;;;;;;10.48;5.10;;;;;;;;;;4981546;28;20050;-58
2023/07/16 00:07:23;;;;;;;14.57;5.75;;;;;;;;;;4983006;28;20520;-58
2023/07/16 00:09:49;;;;;;;12.32;5.88;;;;;;;;;;4985139;28;20121;-58
2023/07/16 00:12:15;;;;;;;11.80;5.20;;;;;;;;;;4987469;28;20035;-58
2023/07/16 00:14:41;;;;;;;15.52;4.85;;;;;;;;;;4981404;28;20039;-58
2023/07/16 00:17:07;;;;;;;9.57;5.22;;;;;;;;;;4982137;28;20145;-58
2023/07/16 00:19:33;;;;;;;15.38;6.03;;;;;;;;;;4985758;28;20124;-58
2023/07/16 00:21:59;;;;;;;11.65;5.63;;;;;;;;;;4986626;28;20137;-58
2023/07/16 00:24:25;;;;;;;10.20;4.75;;;;;;;;;;4987133;28;20377;-58
2023/07/16 00:26:52;;;;;;;10.77;4.45;;;;;;;;;;4985751;28;20186;-58
2023/07/16 00:29:18;;;;;;;10.07;4.35;;;;;;;;;;4983027;28;20535;-58
2023/07/16 00:31:44;;;;;;;10.88;4.10;;;;;;;;;;4983466;28;20031;-58
2023/07/16 00:34:12;;;;;;;8.48;4.10;;;;;;;;;;4985231;28;20233;-58
2023/07/16 00:36:39;;;;;;;12.38;4.13;;;;;;;;;;4985742;28;20536;-58
2023/07/16 00:39:05;;;;;;;9.35;4.30;;;;;;;;;;4985725;28;20081;-58
2023/07/16 00:41:31;;;;;;;9.82;4.55;;;;;;;;;;4987174;28;20038;-58
2023/07/16 00:43:57;;;;;;;11.45;4.07;;;;;;;;;;4981678;28;20050;-58
2023/07/16 00:46:24;;;;;;;7.70;3.58;;;;;;;;;;4981897;28;20146;-58
2023/07/16 00:48:51;;;;;;;6.45;3.65;;;;;;;;;;4979337;28;20089;-58
2023/07/16 00:51:18;;;;;;;11.98;3.92;;;;;;;;;;4978756;28;20042;-58
2023/07/16 00:53:45;;;;;;;8.15;3.03;;;;;;;;;;4980093;28;20069;-58
2023/07/16 00:56:11;;;;;;;12.82;5.15;;;;;;;;;;4986606;28;20046;-58
2023/07/16 00:58:38;;;;;;;15.65;4.05;;;;;;;;;;4984821;28;20042;-58
2023/07/16 01:01:04;;;;;;;11.95;4.65;;;;;;;;;;4979579;28;20046;-58
2023/07/16 01:03:30;;;;;;;10.73;3.53;;;;;;;;;;4977512;28;20513;-58
2023/07/16 01:06:01;;;;;;;9.75;4.30;;;;;;;;;;4984891;28;20108;-58
2023/07/16 01:08:32;;;;;;;14.65;3.75;;;;;;;;;;4978277;28;20050;-58
2023/07/16 01:10:59;;;;;;;11.15;3.90;;;;;;;;;;4981114;28;20034;-58
2023/07/16 01:13:25;;;;;;;11.13;4.40;;;;;;;;;;4986865;28;20069;-58
2023/07/16 01:15:51;;;;;;;12.10;4.03;;;;;;;;;;4995525;28;20047;-58
2023/07/16 01:18:18;;;;;;;10.68;4.28;;;;;;;;;;4974768;28;20107;-58
2023/07/16 01:20:44;;;;;;;7.68;3.78;;;;;;;;;;4979268;28;20051;-58
2023/07/16 01:23:13;;;;;;;7.65;3.95;;;;;;;;;;4979552;28;20116;-57
2023/07/16 01:25:45;;;;;;;10.38;4.07;;;;;;;;;;4982998;28;20404;-58
2023/07/16 01:28:23;;;;;;;8.13;3.75;;;;;;;;;;4988188;28;20065;-58
2023/07/16 01:30:51;;;;;;;14.23;4.35;;;;;;;;;;4978553;28;20694;-57
2023/07/16 01:33:17;;;;;;;9.35;4.88;;;;;;;;;;4984318;28;20126;-58
2023/07/16 01:35:44;;;;;;;9.98;3.75;;;;;;;;;;4990572;28;20050;-58
2023/07/16 01:38:11;;;;;;;11.73;4.05;;;;;;;;;;4976447;28;20065;-58
2023/07/16 01:40:37;;;;;;;11.40;4.70;;;;;;;;;;4969001;28;20038;-58
2023/07/16 01:43:03;;;;;;;9.88;3.58;;;;;;;;;;4985410;28;20531;-57
2023/07/16 01:45:30;;;;;;;8.88;4.20;;;;;;;;;;4983694;28;20054;-58
2023/07/16 01:48:14;;;;;;;12.10;4.10;;;;;;;;;;4983973;28;20065;-58
2023/07/16 01:50:40;;;;;;;11.63;4.07;;;;;;;;;;4981768;28;20335;-58
2023/07/16 01:53:06;;;;;;;12.27;4.63;;;;;;;;;;4983556;28;20051;-57
2023/07/16 01:55:32;;;;;;;11.73;3.83;;;;;;;;;;4986350;28;20381;-58
2023/07/16 01:57:58;;;;;;;12.88;4.45;;;;;;;;;;4985351;28;20039;-58
2023/07/16 02:00:24;;;;;;;9.00;3.80;;;;;;;;;;4985482;28;20057;-58
2023/07/16 02:02:50;;;;;;;13.52;3.63;;;;;;;;;;4987654;28;20045;-58
2023/07/16 02:05:17;;;;;;;8.85;3.67;;;;;;;;;;4981379;28;20190;-58
2023/07/16 02:07:43;;;;;;;8.60;3.92;;;;;;;;;;4974386;28;20038;-58
2023/07/16 02:10:09;;;;;;;7.40;3.65;;;;;;;;;;4979788;28;20073;-58
2023/07/16 02:12:35;;;;;;;9.77;3.58;;;;;;;;;;4986148;28;20050;-58
2023/07/16 02:15:02;;;;;;;10.07;3.50;;;;;;;;;;4985617;28;20436;-58
2023/07/16 02:17:28;;;;;;;7.95;3.38;;;;;;;;;;4984374;28;20362;-58
2023/07/16 02:19:54;;;;;;;8.55;3.35;;;;;;;;;;4987055;28;20279;-58
2023/07/16 02:22:20;;;;;;;8.80;2.67;;;;;;;;;;4986331;28;20126;-58
2023/07/16 02:24:46;;;;;;;8.35;2.95;;;;;;;;;;4984984;28;20046;-58
2023/07/16 02:27:12;;;;;;;14.18;3.30;;;;;;;;;;4982252;28;20178;-58
2023/07/16 02:29:39;;;;;;;9.32;4.32;;;;;;;;;;4982304;28;20261;-57
2023/07/16 02:32:05;;;;;;;8.52;3.30;;;;;;;;;;4978008;28;20066;-58
2023/07/16 02:34:31;;;;;;;9.07;4.30;;;;;;;;;;4985262;28;20046;-57
2023/07/16 02:36:57;;;;;;;9.65;3.90;;;;;;;;;;4981095;28;20038;-58
2023/07/16 02:39:24;;;;;;;6.97;3.50;;;;;;;;;;4974970;28;20441;-57
2023/07/16 02:41:50;;;;;;;10.73;3.95;;;;;;;;;;4981138;28;20050;-57
2023/07/16 02:44:16;;;;;;;11.68;3.95;;;;;;;;;;4984093;28;20039;-57
2023/07/16 02:46:44;;;;;;;11.15;4.43;;;;;;;;;;4992277;28;20047;-56
2023/07/16 02:49:10;;;;;;;6.97;4.30;;;;;;;;;;4975736;28;20122;-57
2023/07/16 02:51:36;;;;;;;8.45;4.07;;;;;;;;;;4979104;28;20357;-56
2023/07/16 02:54:02;;;;;;;12.45;5.15;;;;;;;;;;4980402;28;20124;-57
2023/07/16 02:56:28;;;;;;;11.57;4.05;;;;;;;;;;4972799;28;20042;-57
2023/07/16 02:58:54;;;;;;;12.82;4.45;;;;;;;;;;4977220;28;20062;-57
2023/07/16 03:01:20;;;;;;;11.73;4.55;;;;;;;;;;4989273;28;20038;-57
2023/07/16 03:03:46;;;;;;;9.90;4.75;;;;;;;;;;4981617;28;20128;-57
2023/07/16 03:06:13;;;;;;;10.18;4.78;;;;;;;;;;4977019;28;20051;-57
2023/07/16 03:08:39;;;;;;;8.40;5.15;;;;;;;;;;4987910;28;20042;-56
2023/07/16 03:11:05;;;;;;;13.60;5.05;;;;;;;;;;4987325;28;20189;-57
2023/07/16 03:13:31;;;;;;;7.65;4.82;;;;;;;;;;4989103;28;20499;-57
2023/07/16 03:15:57;;;;;;;9.63;4.95;;;;;;;;;;4986226;28;20042;-57
2023/07/16 03:18:28;;;;;;;8.77;4.82;;;;;;;;;;4982834;28;20388;-57
2023/07/16 03:20:54;;;;;;;15.43;5.95;;;;;;;;;;4977423;28;20350;-57
2023/07/16 03:23:20;;;;;;;15.52;6.85;;;;;;;;;;4977780;28;20254;-57
2023/07/16 03:25:46;;;;;;;9.13;4.95;;;;;;;;;;4975492;28;20043;-59
2023/07/16 03:28:13;;;;;;;10.48;5.85;;;;;;;;;;4981313;28;20117;-59
2023/07/16 03:30:39;;;;;;;10.88;5.85;;;;;;;;;;4987112;28;20038;-57
2023/07/16 03:33:05;;;;;;;18.10;6.53;;;;;;;;;;4983231;28;20049;-59
2023/07/16 03:35:32;;;;;;;8.23;5.20;;;;;;;;;;4984644;28;20056;-59
2023/07/16 03:37:58;;;;;;;15.57;6.18;;;;;;;;;;4988208;28;20416;-57
2023/07/16 03:40:25;;;;;;;14.00;5.72;;;;;;;;;;4984919;28;20060;-57
2023/07/16 03:42:51;;;;;;;11.15;5.68;;;;;;;;;;4978504;28;20065;-56
2023/07/16 03:45:17;;;;;;;8.10;4.90;;;;;;;;;;4977462;28;20121;-57
2023/07/16 03:47:43;;;;;;;7.65;4.78;;;;;;;;;;4993390;28;20572;-59
2023/07/16 03:50:10;;;;;;;15.43;5.15;;;;;;;;;;4984348;28;20042;-57
2023/07/16 03:52:36;;;;;;;10.65;4.57;;;;;;;;;;4976648;28;20054;-57
2023/07/16 03:55:02;;;;;;;9.45;5.10;;;26.10;88.20;;;;;;4974111;28;20121;-57
2023/07/16 03:57:29;;;;;;;12.93;6.03;;;;;;;;;;4986547;28;20472;-56
2023/07/16 03:59:55;;;;;;;10.50;6.00;;;;;;;;;;4999282;28;20550;-57
2023/07/16 04:02:21;;;;;;;13.07;6.28;;;;;;;;;;4987904;28;20465;-56
2023/07/16 04:04:47;;;;;;;10.18;5.68;;;;;;;;;;4982737;28;20100;-57
2023/07/16 04:07:13;;;;;;;14.98;5.35;;;;;;;;;;4986755;28;20030;-56
2023/07/16 04:09:40;;;;;;;12.57;6.03;;;;;;;;;;4982777;28;20057;-57
2023/07/16 04:12:07;;;;;;;9.68;6.45;;;;;;;;;;4982459;28;20477;-57
2023/07/16 04:14:33;;;;;;;14.50;7.30;;;;;;;;;;4980172;28;20038;-57
2023/07/16 04:16:59;;;;;;;10.77;6.40;;;;;;;;;;4985553;28;20035;-57
2023/07/16 04:19:25;;;;;;;12.38;7.18;;;;;;;;;;4987649;28;20180;-57
2023/07/16 04:21:51;;;;;;;10.65;5.65;;;;;;;;;;4985494;28;20438;-56
2023/07/16 04:24:17;;;;;;;17.05;7.25;;;;;;;;;;4981190;28;20042;-57
2023/07/16 04:26:43;;;;;;;11.10;6.63;;;;;;;;;;4982882;28;20047;-56
2023/07/16 04:29:09;;;;;;;11.13;6.28;;;;;;;;;;4977921;28;20054;-57
2023/07/16 04:31:36;;;;;;;11.82;7.30;;;;;;;;;;4978563;28;20039;-57
2023/07/16 04:34:02;;;;;;;11.98;6.35;;;;;;;;;;4979756;28;20481;-57
2023/07/16 04:36:28;;;;;;;13.70;7.13;;;;;;;;;;4999220;28;20072;-57
2023/07/16 04:38:54;;;;;;;15.15;7.03;;;;;;;;;;4979272;28;20046;-57
2023/07/16 04:41:20;;;;;;;13.65;6.82;;;;;;;;;;4979496;28;20133;-57
2023/07/16 04:43:46;;;;;;;10.02;6.07;;;;;;;;;;4984215;28;20084;-57
2023/07/16 04:46:12;;;;;;;13.05;6.38;;;;;;;;;;4976920;28;20484;-57
2023/07/16 04:48:38;;;;;;;11.20;6.75;;;;;;;;;;4988786;28;20043;-57
2023/07/16 04:51:04;;;;;;;14.80;6.20;;;17.80;96.90;;;;;;4973241;28;20043;-57
2023/07/16 04:53:30;;;;;;;11.13;6.13;;;17.80;98.10;;;;;;4976018;28;20053;-57
2023/07/16 04:55:56;;;;;;;14.85;6.57;;;17.80;98.10;;;;;;4975978;28;20049;-57
2023/07/16 04:58:22;;;;;;;11.52;5.65;;;17.80;98.10;;;;;;4977394;28;20046;-58
2023/07/16 05:00:49;;;;;;;12.30;6.35;;;17.80;98.00;;;;;;4975873;28;20049;-57
2023/07/16 05:03:14;;;;;;;18.52;6.50;;;17.80;97.90;;;;;;4977329;28;20070;-58
2023/07/16 05:05:41;;;;;;;17.60;6.50;;;17.80;97.80;;;;;;4976694;28;20082;-58
2023/07/16 05:08:06;;;;;;;12.18;6.85;;;17.90;97.80;;;;;;4970024;28;20046;-57
2023/07/16 05:10:33;;;;;;;13.50;6.75;;;17.90;97.80;;;;;;4997264;28;20190;-58
2023/07/16 05:12:59;;;;;;;16.08;7.20;;;;;;;;;;4982735;28;20034;-58
2023/07/16 05:15:25;;;;;;;15.35;6.32;;;;;;;;;;4976811;28;20106;-58
2023/07/16 05:17:52;;;;;;;10.98;6.82;;;;;;;;;;4975800;28;20125;-58
2023/07/16 05:20:18;;;;;;;13.00;6.95;;;;;;;;;;4979271;28;20074;-57
2023/07/16 05:22:44;;;;;;;13.18;6.30;;;;;;;;;;4974536;28;20050;-59
2023/07/16 05:25:10;;;;;;;11.20;6.10;;;;;;;;;;4974509;28;20057;-58
2023/07/16 05:27:36;;;;;;;13.43;6.57;;;;;;;;;;4973418;28;20063;-58
2023/07/16 05:30:03;;;;;;;12.98;7.03;;;;;;;;;;4981155;28;20039;-58
2023/07/16 05:32:29;;;;;;;13.43;6.50;;;;;;;;;;4980472;28;20042;-57
2023/07/16 05:34:55;;;;;;;16.17;6.53;;;;;;;;;;4974835;28;20571;-58
2023/07/16 05:37:21;;;;;;;14.60;7.18;;;;;;;;;;4979321;28;20054;-58
2023/07/16 05:39:47;;;;;;;13.43;6.45;;;;;;;;;;4979227;28;20317;-58
2023/07/16 05:42:14;;;;;;;13.80;6.20;;;;;;;;;;4979178;28;20046;-57
2023/07/16 05:44:41;;;;;;;14.77;6.10;;;;;;;;;;4949376;28;20045;-57
2023/07/16 05:47:08;;;;;;;12.18;5.53;;;;;;;;;;4979862;28;20042;-58
2023/07/16 05:49:35;;;;;;;8.48;5.65;;;;;;;;;;4971848;28;20509;-58
2023/07/16 05:52:01;;;;;;;12.77;5.63;;;;;;;;;;4978068;28;20062;-57
2023/07/16 05:54:27;;;;;;;13.98;6.35;;;;;;;;;;4974611;28;20556;-58
2023/07/16 05:56:53;;;;;;;11.88;5.50;;;;;;;;;;4985771;28;20598;-57
2023/07/16 05:59:19;;;;;;;7.47;4.70;;;;;;;;;;4975940;28;20054;-57
2023/07/16 06:01:45;;;;;;;12.07;5.50;;;;;;;;;;4978256;28;20432;-58
2023/07/16 06:04:11;;;;;;;9.52;4.45;;;;;;;;;;4969775;28;20057;-57
2023/07/16 06:06:37;;;;;;;8.10;4.47;;;;;;;;;;4978177;28;20100;-57
2023/07/16 06:09:04;;;;;;;11.10;5.30;;;;;;;;;;4975252;28;20377;-57
2023/07/16 06:11:30;;;;;;;12.18;5.18;;;;;;;;;;4973930;28;20122;-57
2023/07/16 06:13:56;;;;;;;12.55;5.35;;;;;;;;;;4978128;28;20097;-57
2023/07/16 06:16:22;;;;;;;11.48;5.75;;;;;;;;;;4976087;28;20047;-57
2023/07/16 06:18:48;;;;;;;13.10;6.50;;;;;;;;;;4983180;28;20072;-57
2023/07/16 06:21:15;;;;;;;11.30;5.07;;;;;;;;;;4977920;28;20190;-58
2023/07/16 06:23:41;;;;;;;13.57;5.32;;;;;;;;;;4979337;28;20058;-57
2023/07/16 06:26:07;;;;;;;11.85;5.30;;;;;;;;;;4974496;28;20077;-57
2023/07/16 06:28:33;;;;;;;9.60;4.80;;;;;;;;;;4973852;28;20034;-57
2023/07/16 06:31:01;;;;;;;12.52;5.97;;;;;;;;;;4971921;28;20126;-57
2023/07/16 06:33:28;;;;;;;10.95;6.32;;;;;;;;;;4974307;28;20089;-58
2023/07/16 06:35:54;;;;;;;10.82;5.38;;;;;;;;;;4976157;28;20064;-57
2023/07/16 06:38:20;;;;;;;12.70;6.40;;;;;;;;;;4972920;28;20074;-58
2023/07/16 06:40:48;;;;;;;17.98;7.13;;;;;;;;;;4981233;28;20050;-58
2023/07/16 06:43:14;;;;;;;9.52;5.22;;;;;;;;;;4976441;28;20042;-58
2023/07/16 06:45:40;;;;;;;11.48;6.47;;;;;;;;;;4979770;28;20050;-58
2023/07/16 06:48:06;;;;;;;12.35;5.10;;;;;;;;;;4969530;28;20050;-57
2023/07/16 06:50:32;;;;;;;14.48;5.32;;;;;;;;;;4975519;28;20054;-58
2023/07/16 06:52:58;;;;;;;8.23;4.88;;;17.90;97.80;;;;;;4979946;28;20258;-58
2023/07/16 06:55:24;;;;;;;17.85;7.18;;;18.50;99.40;;;;;;4978682;28;20182;-58
2023/07/16 06:57:49;;;;;;;13.48;7.13;;;18.50;99.20;;;;;;4979481;28;20400;-58
2023/07/16 07:00:16;;;;;;;13.00;5.70;;;18.50;99.10;;;;;;4976277;28;20046;-58
2023/07/16 07:02:42;;;;;;;12.35;5.78;;;18.50;99.10;;;;;;4979216;28;20101;-58
2023/07/16 07:05:08;;;;;;;10.25;5.35;;;18.50;99.10;;;;;;4980526;28;20200;-57
2023/07/16 07:07:33;;;;;;;8.77;5.80;;;18.50;99.20;;;;;;4975864;28;20070;-57
2023/07/16 07:10:00;;;;;;;11.75;5.97;;;18.40;99.30;;;;;;4976654;28;20441;-57
2023/07/16 07:12:25;;;;;;;13.38;6.05;;;18.40;99.60;;;;;;4993770;28;20050;-57
2023/07/16 07:14:51;;;;;;;10.45;5.47;;;18.30;99.70;;;;;;4981593;28;20640;-57
2023/07/16 07:17:17;;;;;;;13.13;6.30;;;18.30;99.90;;;;;;4970925;28;20046;-57
2023/07/16 07:19:44;;;;;;;17.85;6.82;;;18.20;99.90;;;;;;4982704;28;20161;-57
2023/07/16 07:22:10;;;;;;;34.92;7.20;;;18.30;99.90;;;;;;4974144;28;20056;-59
2023/07/16 07:24:35;;;;;;;14.05;5.97;;;18.20;99.90;;;;;;4975824;28;20035;-58
2023/07/16 07:27:01;;;;;;;21.65;6.35;;;18.20;99.90;;;;;;4975865;28;20047;-58
2023/07/16 07:29:27;;;;;;;25.90;7.00;;;18.20;99.90;;;;;;4968971;28;20142;-58
2023/07/16 07:31:53;;;;;;;10.38;5.72;;;18.30;99.90;;;;;;4980426;28;20070;-58
2023/07/16 07:34:19;;;;;;;9.27;5.03;;;18.30;99.90;;;;;;4978725;28;20566;-58
2023/07/16 07:36:45;;;;;;;13.95;5.47;;;18.40;99.90;;;;;;4832070;23;20042;-81
2023/07/16 07:39:13;;;;;;;13.38;5.30;;;18.40;99.60;;;;;;4991500;28;20041;-81
2023/07/16 07:41:39;;;;;;;14.82;6.47;;;18.50;99.40;;;;;;4968699;28;20398;-77
2023/07/16 07:44:04;;;;;;;87.55;12.05;;;18.50;99.30;;;;;;4989091;28;20043;-79
2023/07/16 07:46:30;;;;;;;20.02;6.07;;;18.60;99.20;;;;;;4991666;28;20038;-77
2023/07/16 07:48:56;;;;;;;10.32;4.47;;;;;;;;;;5010119;28;20038;-78
2023/07/16 07:51:22;;;;;;;74.20;15.40;;;;;;;;;;4992650;28;20038;-79
2023/07/16 07:53:49;;;;;;;67.85;14.60;;;;;;;;;;4992900;28;20069;-79
2023/07/16 07:56:15;;;;;;;84.13;17.23;;;;;;;;;;5003109;28;20042;-79
2023/07/16 07:58:41;;;;;;;134.48;27.88;;;;;;;;;;4974906;28;20366;-79
2023/07/16 08:01:08;;;;;;;25.60;7.07;;;;;;;;;;4973210;28;20057;-79
2023/07/16 08:03:34;;;;;;;119.57;25.20;;;18.60;99.10;;;;;;4985749;28;20562;-79
2023/07/16 08:06:00;;;;;;;220.20;42.97;;;;;;;;;;5000915;28;20044;-79
2023/07/16 08:08:27;;;;;;;49.28;9.20;;;;;;;;;;4988871;28;20120;-78
2023/07/16 08:10:53;;;;;;;36.30;9.98;;;18.80;98.40;;;;;;4989589;28;20034;-79
2023/07/16 08:13:19;;;;;;;19.20;5.75;;;19.00;98.20;;;;;;4988916;28;20035;-78
2023/07/16 08:15:45;;;;;;;65.45;13.07;;;19.00;98.10;;;;;;4955422;28;20088;-80
2023/07/16 08:18:11;;;;;;;328.17;64.32;;;19.00;97.90;;;;;;4951143;28;20116;-77
2023/07/16 08:20:37;;;;;;;30.00;7.95;;;19.00;97.90;;;;;;4971187;28;20109;-78
2023/07/16 08:23:02;;;;;;;223.98;43.10;;;19.10;97.90;;;;;;4967301;28;20562;-79
2023/07/16 08:25:29;;;;;;;230.95;45.80;;;;;;;;;;4953737;28;20042;-79
2023/07/16 08:27:55;;;;;;;104.22;15.23;;;;;;;;;;4971698;28;20034;-78
2023/07/16 08:30:21;;;;;;;84.95;16.90;;;;;;;;;;4987580;28;20061;-78
2023/07/16 08:32:47;;;;;;;48.45;10.93;;;;;;;;;;4987956;28;20512;-78
2023/07/16 08:35:16;;;;;;;27.25;6.80;;;;;;;;;;4955448;28;20085;-80
2023/07/16 08:37:46;;;;;;;16.52;6.93;;;;;;;;;;4987087;28;20077;-76
2023/07/16 08:40:13;;;;;;;17.95;7.05;;;;;;;;;;4967434;28;20113;-79
2023/07/16 08:42:40;;;;;;;23.23;6.53;;;19.10;97.90;;;;;;4966748;28;20038;-78
2023/07/16 08:45:09;;;;;;;14.32;5.22;;;19.30;97.00;;;;;;4984404;28;20128;-83
2023/07/16 08:47:35;;;;;;;14.95;5.88;;;19.30;96.80;;;;;;4967634;28;20840;-82
2023/07/16 08:50:02;;;;;;;12.57;5.25;;;19.30;96.80;;;;;;4988932;28;20066;-82
2023/07/16 08:52:27;;;;;;;11.18;6.70;;;19.30;96.90;;;;;;4996396;28;20053;-81
2023/07/16 08:54:54;;;;;;;12.20;5.10;;;;;;;;;;4991341;28;20121;-82
2023/07/16 08:57:21;;;;;;;12.30;5.20;;;19.40;96.90;;;;;;4990037;28;20073;-81
2023/07/16 08:59:48;;;;;;;34.50;6.57;;;19.60;96.70;;;;;;4990859;28;20034;-82
2023/07/16 09:02:19;;;;;;;18.15;5.65;;;19.70;96.40;;;;;;4991184;28;20678;-82
2023/07/16 09:04:48;;;;;;;12.88;4.97;;;19.70;96.10;;;;;;4991169;28;20061;-83
2023/07/16 09:07:15;;;;;;;14.50;5.40;;;19.80;96.20;;;;;;4959734;28;20121;-82
2023/07/16 09:09:41;;;;;;;20.98;7.10;;;19.80;96.30;;;;;;4991159;28;20536;-81
2023/07/16 09:12:11;;;;;;;270.75;55.83;;;19.90;96.40;;;;;;4977175;28;20117;-82
2023/07/16 09:14:37;;;;;;;360.42;68.82;;;;;;;;;;4991135;28;20061;-82
2023/07/16 09:17:03;;;;;;;465.70;90.18;;;;;;;;;;4994994;28;20054;-83
2023/07/16 09:19:32;;;;;;;86.30;20.35;;;;;;;;;;4959760;28;20054;-82
2023/07/16 09:21:58;;;;;;;141.10;24.08;;;;;;;;;;4999773;28;20053;-83
2023/07/16 09:24:24;;;;;;;29.70;7.22;;;;;;;;;;4996130;28;20496;-82
2023/07/16 09:27:00;;;;;;;164.70;32.97;;;;;;;;;;4974321;28;20042;-83
2023/07/16 09:29:27;;;;;;;56.88;10.98;;;;;;;;;;4989324;28;20034;-81
2023/07/16 09:31:54;;;;;;;90.22;16.55;;;;;;;;;;4966498;28;20046;-81
2023/07/16 09:34:20;;;;;;;68.18;12.88;;;;;;;;;;4964137;28;20034;-81
2023/07/16 09:36:50;;;;;;;40.83;8.63;;;;;;;;;;4951831;28;20502;-83
2023/07/16 09:39:18;;;;;;;22.13;6.50;;;;;;;;;;4985640;28;20061;-83
2023/07/16 09:41:44;;;;;;;337.00;31.23;;;;;;;;;;4972815;28;20049;-81
2023/07/16 09:44:12;;;;;;;33.60;7.65;;;;;;;;;;4988486;28;20134;-81
2023/07/16 09:46:38;;;;;;;16.27;5.05;;;;;;;;;;4988332;28;20051;-80
2023/07/16 09:49:04;;;;;;;41.72;9.35;;;;;;;;;;4973377;28;20038;-82
2023/07/16 09:51:32;;;;;;;77.55;11.80;;;;;;;;;;4964177;28;20101;-81
2023/07/16 09:54:00;;;;;;;21.10;6.32;;;;;;;;;;4987113;28;20557;-81
2023/07/16 09:56:30;;;;;;;65.63;10.77;;;;;;;;;;4986841;28;20046;-80
2023/07/16 09:58:58;;;;;;;45.33;10.80;;;;;;;;;;4975721;28;20077;-80
2023/07/16 10:01:25;;;;;;;18.48;6.53;;;;;;;;;;4972840;28;20489;-80
2023/07/16 10:03:51;;;;;;;41.58;8.80;;;;;;;;;;4986981;28;20049;-80
2023/07/16 10:06:18;;;;;;;16.17;5.88;;;;;;;;;;4988202;28;20742;-81
2023/07/16 10:08:50;;;;;;;31.42;9.20;;;;;;;;;;4972248;28;20077;-80
2023/07/16 10:11:17;;;;;;;12.23;5.70;;;;;;;;;;4987990;28;20049;-80
2023/07/16 10:13:43;;;;;;;18.42;5.40;;;;;;;;;;5002117;28;20042;-82
2023/07/16 10:16:20;;;;;;;11.43;5.00;;;;;;;;;;4988730;28;20113;-81
2023/07/16 10:18:53;;;;;;;96.90;12.45;;;;;;;;;;4990659;28;20038;-81
2023/07/16 10:21:28;;;;;;;16.65;5.22;;;;;;;;;;4990661;28;20050;-82
2023/07/16 10:24:00;;;;;;;86.43;12.30;;;;;;;;;;4989231;28;20042;-82
2023/07/16 10:26:30;;;;;;;32.38;7.00;;;;;;;;;;4989474;28;20074;-82
2023/07/16 10:28:56;;;;;;;21.08;5.97;;;;;;;;;;4971992;28;20092;-81
2023/07/16 10:31:25;;;;;;;11.27;4.70;;;20.00;96.50;;;;;;4968421;28;20096;-81
2023/07/16 10:34:01;;;;;;;8.10;4.55;;;;;;;;;;4987944;28;20076;-81
2023/07/16 10:36:27;;;;;;;12.77;4.15;;;;;;;;;;4986785;28;20146;-81
2023/07/16 10:38:53;;;;;;;14.13;4.82;;;;;;;;;;4987288;28;20050;-81
2023/07/16 10:41:19;;;;;;;12.32;4.80;;;;;;;;;;4957184;28;20058;-81
2023/07/16 10:43:46;;;;;;;17.65;4.97;;;;;;;;;;4957057;28;20081;-81
2023/07/16 10:46:12;;;;;;;10.57;4.55;;;;;;;;;;4971838;28;20396;-81
2023/07/16 10:48:38;;;;;;;10.27;4.60;;;;;;;;;;4989110;28;20129;-81
2023/07/16 10:51:04;;;;;;;12.20;4.55;;;;;;;;;;4970900;28;20038;-81
2023/07/16 10:53:30;;;;;;;12.63;5.50;;;;;;;;;;4964661;28;20133;-81
2023/07/16 10:56:01;;;;;;;27.70;7.15;;;;;;;;;;4987716;28;20478;-81
2023/07/16 10:58:27;;;;;;;49.33;8.77;;;;;;;;;;4986677;28;20073;-80
2023/07/16 11:00:53;;;;;;;10.52;4.15;;;;;;;;;;4972070;28;20525;-82
2023/07/16 11:03:19;;;;;;;10.63;4.05;;;;;;;;;;4985574;28;20042;-83
2023/07/16 11:05:48;;;;;;;13.60;4.57;;;;;;;;;;4964396;28;20043;-82
2023/07/16 11:08:24;;;;;;;9.43;4.00;;;;;;;;;;4983244;28;20162;-82
2023/07/16 11:10:57;;;;;;;8.85;4.20;;;;;;;;;;4986365;28;20038;-79
2023/07/16 11:13:23;;;;;;;;;;;;;;;;;;4970603;28;20040;-83
2023/07/16 11:15:49;;;;;;;17.70;5.28;;;;;;;;;;4969461;28;19964;-82
2023/07/16 11:18:15;;;;;;;15.48;4.20;;;;;;;;;;4953037;28;20034;-83
2023/07/16 11:20:41;;;;;;;14.27;4.80;;;;;;;;;;4989001;28;20129;-82
2023/07/16 11:23:10;;;;;;;7.72;3.97;;;;;;;;;;4971643;28;20049;-82
2023/07/16 11:25:37;;;;;;;10.60;4.20;;;;;;;;;;4968644;28;20470;-82
2023/07/16 11:28:03;;;;;;;10.60;4.80;;;;;;;;;;4974525;28;20054;-82
2023/07/16 11:30:29;;;;;;;15.65;4.35;;;;;;;;;;4992083;28;20323;-83
2023/07/16 11:32:55;;;;;;;37.00;7.95;;;;;;;;;;4992989;28;20080;-82
2023/07/16 11:35:21;;;;;;;10.63;4.07;;;;;;;;;;4963862;28;20065;-82
2023/07/16 11:37:48;;;;;;;12.05;4.68;;;;;;;;;;4992295;28;20069;-82
2023/07/16 11:40:18;;;;;;;13.98;4.45;;;;;;;;;;4993629;28;20039;-82
2023/07/16 11:42:44;;;;;;;28.30;5.68;;;;;;;;;;4991090;28;20038;-82
2023/07/16 11:45:17;;;;;;;11.27;3.65;;;;;;;;;;4993201;28;20050;-82
2023/07/16 11:47:43;;;;;;;10.68;3.50;;;;;;;;;;4993628;28;20038;-81
2023/07/16 11:50:09;;;;;;;16.40;3.50;;;;;;;;;;4990400;28;20050;-80
2023/07/16 11:52:35;;;;;;;12.90;4.18;;;;;;;;;;4992723;28;20062;-80
2023/07/16 11:55:01;;;;;;;17.63;4.97;;;20.20;93.70;;;;;;4975494;28;20054;-81
2023/07/16 11:57:28;;;;;;;12.00;3.20;;;20.50;90.90;;;;;;4993813;28;20045;-81
2023/07/16 11:59:54;;;;;;;10.18;4.13;;;20.50;91.30;;;;;;4985070;28;20230;-81
2023/07/16 12:02:20;;;;;;;12.30;3.63;;;20.40;91.50;;;;;;5003133;28;20217;-81
2023/07/16 12:04:46;;;;;;;11.68;5.43;;;20.40;91.80;;;;;;4952085;28;20050;-80
2023/07/16 12:07:12;;;;;;;17.70;4.65;;;20.50;91.90;;;;;;4932796;28;20635;-80
2023/07/16 12:09:38;;;;;;;23.80;4.68;;;20.60;92.00;;;;;;4984707;28;20129;-80
2023/07/16 12:12:04;;;;;;;10.93;4.30;;;20.70;91.90;;;;;;4959384;28;20054;-80
2023/07/16 12:14:30;;;;;;;12.27;4.28;;;20.70;91.60;;;;;;4989185;28;20039;-80
2023/07/16 12:16:56;;;;;;;16.65;5.20;;;20.70;91.60;;;;;;4952358;28;20033;-80
2023/07/16 12:19:22;;;;;;;12.55;5.45;;;20.60;91.80;;;;;;4960961;28;20458;-81
2023/07/16 12:21:48;;;;;;;12.02;5.35;;;20.60;92.10;;;;;;4925535;28;20057;-80
2023/07/16 12:24:13;;;;;;;17.50;4.72;;;20.60;92.30;;;;;;4960848;28;20116;-81
2023/07/16 12:26:39;;;;;;;12.65;4.72;;;20.60;92.30;;;;;;4925247;28;20105;-80
2023/07/16 12:29:05;;;;;;;10.45;4.45;;;20.50;92.30;;;;;;4949643;28;20424;-81
2023/07/16 12:31:31;;;;;;;10.40;4.03;;;20.50;92.40;;;;;;4911337;28;20053;-80
2023/07/16 12:33:58;;;;;;;17.90;7.00;;;20.50;92.40;;;;;;4946089;28;20039;-80
2023/07/16 12:36:24;;;;;;;12.52;3.95;;;20.40;92.70;;;;;;4978035;28;20487;-81
2023/07/16 12:38:50;;;;;;;8.88;4.55;;;20.40;93.20;;;;;;4951756;28;20348;-81
2023/07/16 12:41:16;;;;;;;21.98;5.22;;;20.30;93.60;;;;;;4943602;28;20957;-80
2023/07/16 12:43:42;;;;;;;10.40;4.55;;;20.30;93.80;;;;;;4893427;28;20082;-81
2023/07/16 12:46:08;;;;;;;15.55;5.38;;;20.30;94.00;;;;;;4960458;28;20784;-81
2023/07/16 12:48:34;;;;;;;15.68;5.40;;;20.30;94.20;;;;;;4943791;28;20125;-82
2023/07/16 12:51:00;;;;;;;10.73;5.03;;;20.40;94.30;;;;;;4950963;28;20125;-82
2023/07/16 12:53:26;;;;;;;18.85;4.72;;;20.50;94.20;;;;;;4960236;28;20104;-82
2023/07/16 12:55:53;;;;;;;16.27;5.10;;;20.50;94.20;;;;;;4955783;28;20090;-82
2023/07/16 12:58:19;;;;;;;12.32;5.22;;;20.50;94.20;;;;;;4946519;28;20042;-81
2023/07/16 13:00:45;;;;;;;18.90;4.93;;;20.50;93.90;;;;;;4976603;28;20736;-81
2023/07/16 13:03:11;;;;;;;10.40;4.07;;;20.50;93.50;;;;;;4945176;28;20050;-82
2023/07/16 13:05:44;;;;;;;10.73;4.10;;;20.70;93.30;;;;;;4988931;28;20049;-82
2023/07/16 13:08:10;;;;;;;9.98;4.20;;;20.70;92.80;;;;;;4992788;28;20064;-82
2023/07/16 13:10:36;;;;;;;13.60;4.07;;;20.70;92.60;;;;;;4987786;28;20049;-82
2023/07/16 13:13:03;;;;;;;14.75;5.15;;;20.70;92.40;;;;;;4970563;28;20872;-82
2023/07/16 13:15:29;;;;;;;13.30;4.78;;;20.60;92.10;;;;;;4990821;28;20053;-83
2023/07/16 13:17:55;;;;;;;10.25;3.55;;;20.60;91.90;;;;;;4957218;28;20644;-83
2023/07/16 13:20:22;;;;;;;13.63;4.97;;;20.60;92.00;;;;;;4972230;28;20061;-86
2023/07/16 13:22:48;;;;;;;14.65;4.57;;;20.50;92.10;;;;;;4986286;28;20042;-85
2023/07/16 13:25:14;;;;;;;17.95;5.70;;;20.50;92.20;;;;;;4977330;28;20127;-83
2023/07/16 13:27:40;;;;;;;18.95;5.15;;;20.40;92.30;;;;;;4973295;28;20435;-78
2023/07/16 13:30:06;;;;;;;12.93;4.78;;;20.40;92.40;;;;;;4984889;28;20038;-78
2023/07/16 13:32:32;;;;;;;15.68;5.40;;;20.30;92.60;;;;;;4983183;28;20054;-78
2023/07/16 13:34:58;;;;;;;10.70;3.85;;;20.30;92.80;;;;;;4967942;28;20081;-78
2023/07/16 13:37:24;;;;;;;13.25;5.00;;;20.30;93.10;;;;;;4929511;28;1128459;-78
2023/07/16 13:39:49;;;;;;;16.10;4.65;;;20.40;93.10;;;;;;4985957;28;20550;-78
2023/07/16 13:42:15;;;;;;;14.85;5.13;;;20.40;93.10;;;;;;4968267;28;20066;-78
2023/07/16 13:44:41;;;;;;;16.00;5.32;;;20.50;93.10;;;;;;4952401;28;20078;-78
2023/07/16 13:47:07;;;;;;;15.85;4.68;;;20.50;92.80;;;;;;4967360;28;20632;-78
2023/07/16 13:49:32;;;;;;;15.18;4.38;;;20.40;92.50;;;;;;4952428;28;20046;-78